createdAt,value
2018-07-25T00:01:47.142Z,10.67
2018-07-25T00:04:18.162Z,10.23
2018-07-25T00:06:49.369Z,10.50
2018-07-25T00:09:20.501Z,10.70
2018-07-25T00:11:52.355Z,10.10
2018-07-25T00:14:24.872Z,10.33
2018-07-25T00:16:56.985Z,10.97
2018-07-25T00:19:29.177Z,10.10
2018-07-25T00:22:00.312Z,10.40
2018-07-25T00:24:31.376Z,10.30
2018-07-25T00:27:03.038Z,10.87
2018-07-25T00:29:34.126Z,10.57
2018-07-25T00:32:05.525Z,12.07
2018-07-25T00:34:36.666Z,10.80
2018-07-25T00:37:07.753Z,10.40
2018-07-25T00:39:39.089Z,10.63
2018-07-25T00:42:11.466Z,12.00
2018-07-25T00:44:42.959Z,12.20
2018-07-25T00:47:15.064Z,11.17
2018-07-25T00:49:47.057Z,10.80
2018-07-25T00:52:18.084Z,11.40
2018-07-25T00:54:49.372Z,12.07
2018-07-25T00:57:20.698Z,10.27
2018-07-25T00:59:51.909Z,12.50
2018-07-25T01:02:25.249Z,12.30
2018-07-25T01:04:56.312Z,10.60
2018-07-25T01:07:27.348Z,11.17
2018-07-25T01:09:58.704Z,11.13
2018-07-25T01:12:31.374Z,10.50
2018-07-25T01:15:02.587Z,11.93
2018-07-25T01:17:33.793Z,12.07
2018-07-25T01:20:05.102Z,12.50
2018-07-25T01:22:36.384Z,11.60
2018-07-25T01:25:07.518Z,12.20
2018-07-25T01:27:39.050Z,12.10
2018-07-25T01:30:10.143Z,12.40
2018-07-25T01:32:41.106Z,11.63
2018-07-25T01:35:12.364Z,11.27
2018-07-25T01:37:43.477Z,11.30
2018-07-25T01:40:14.728Z,11.33
2018-07-25T01:42:47.881Z,10.63
2018-07-25T01:45:19.204Z,10.60
2018-07-25T01:47:50.272Z,10.53
2018-07-25T01:50:21.198Z,9.80
2018-07-25T01:52:52.205Z,9.43
2018-07-25T01:55:23.164Z,9.97
2018-07-25T01:57:54.387Z,9.40
2018-07-25T02:00:25.560Z,9.60
2018-07-25T02:02:56.592Z,9.50
2018-07-25T02:05:27.675Z,10.50
2018-07-25T02:07:59.554Z,10.63
2018-07-25T02:10:31.062Z,10.47
2018-07-25T02:13:02.921Z,10.30
2018-07-25T02:15:35.135Z,10.63
2018-07-25T02:18:06.353Z,9.80
2018-07-25T02:20:37.714Z,9.50
2018-07-25T02:23:09.468Z,8.83
2018-07-25T02:25:40.508Z,9.83
2018-07-25T02:28:12.497Z,11.07
2018-07-25T02:30:43.745Z,9.77
2018-07-25T02:33:15.930Z,10.23
2018-07-25T02:35:47.544Z,9.13
2018-07-25T02:38:18.626Z,9.53
2018-07-25T02:40:50.094Z,9.80
2018-07-25T02:43:22.263Z,10.20
2018-07-25T02:45:54.503Z,9.23
2018-07-25T02:48:25.739Z,9.40
2018-07-25T02:50:57.789Z,10.50
2018-07-25T02:53:28.987Z,10.30
2018-07-25T02:56:00.173Z,10.30
2018-07-25T02:58:31.376Z,9.30
2018-07-25T03:01:02.247Z,9.00
2018-07-25T03:03:34.150Z,9.70
2018-07-25T03:06:05.239Z,10.17
2018-07-25T03:08:36.221Z,11.47
2018-07-25T03:11:07.645Z,10.50
2018-07-25T03:13:39.645Z,10.60
2018-07-25T03:16:10.775Z,11.07
2018-07-25T03:18:41.901Z,9.90
2018-07-25T03:21:12.848Z,11.00
2018-07-25T03:23:43.971Z,10.53
2018-07-25T03:26:15.139Z,10.83
2018-07-25T03:28:47.399Z,10.13
2018-07-25T03:31:18.536Z,10.27
2018-07-25T03:33:50.038Z,10.87
2018-07-25T03:36:20.959Z,10.53
2018-07-25T03:38:51.903Z,10.53
2018-07-25T03:41:23.228Z,9.47
2018-07-25T03:43:55.126Z,10.77
2018-07-25T03:46:26.480Z,10.30
2018-07-25T03:48:57.645Z,9.20
2018-07-25T03:51:28.827Z,11.50
2018-07-25T03:53:59.872Z,11.47
2018-07-25T03:56:30.968Z,10.37
2018-07-25T03:59:02.809Z,11.27
2018-07-25T04:01:34.706Z,11.57
2018-07-25T04:04:05.924Z,11.60
2018-07-25T04:06:36.924Z,11.27
2018-07-25T04:09:10.139Z,11.57
2018-07-25T04:11:41.264Z,11.27
2018-07-25T04:14:14.064Z,10.67
2018-07-25T04:16:45.038Z,12.63
2018-07-25T04:19:16.306Z,12.30
2018-07-25T04:21:47.497Z,12.53
2018-07-25T04:24:18.643Z,12.30
2018-07-25T04:26:49.702Z,13.00
2018-07-25T04:29:21.063Z,12.40
2018-07-25T04:31:52.209Z,13.87
2018-07-25T04:34:23.991Z,12.80
2018-07-25T04:36:55.151Z,11.83
2018-07-25T04:39:26.256Z,13.20
2018-07-25T04:41:57.366Z,12.03
2018-07-25T04:44:29.441Z,11.50
2018-07-25T04:47:00.652Z,14.23
2018-07-25T04:49:32.456Z,14.77
2018-07-25T04:52:03.488Z,13.83
2018-07-25T04:54:35.725Z,12.77
2018-07-25T04:57:07.320Z,14.03
2018-07-25T04:59:40.236Z,13.03
2018-07-25T05:02:11.635Z,14.70
2018-07-25T05:04:43.671Z,14.63
2018-07-25T05:07:16.943Z,14.80
2018-07-25T05:09:48.051Z,13.40
2018-07-25T05:12:19.214Z,15.13
2018-07-25T05:14:50.156Z,14.43
2018-07-25T05:17:21.513Z,15.77
2018-07-25T05:19:52.525Z,14.27
2018-07-25T05:22:23.542Z,15.20
2018-07-25T05:24:55.112Z,14.67
2018-07-25T05:27:26.418Z,15.37
2018-07-25T05:29:58.477Z,14.57
2018-07-25T05:32:29.498Z,16.33
2018-07-25T05:35:00.605Z,16.13
2018-07-25T05:37:31.665Z,16.93
2018-07-25T05:40:03.927Z,15.87
2018-07-25T05:42:35.192Z,15.50
2018-07-25T05:45:07.949Z,14.60
2018-07-25T05:47:40.031Z,15.60
2018-07-25T05:50:12.128Z,14.30
2018-07-25T05:52:43.216Z,14.50
2018-07-25T05:55:14.345Z,14.90
2018-07-25T05:57:45.263Z,15.40
2018-07-25T06:00:16.216Z,15.17
2018-07-25T06:02:47.376Z,16.60
2018-07-25T06:05:19.503Z,15.87
2018-07-25T06:07:50.870Z,16.60
2018-07-25T06:10:24.110Z,17.30
2018-07-25T06:12:55.471Z,16.10
2018-07-25T06:15:27.978Z,15.20
2018-07-25T06:17:59.248Z,15.27
2018-07-25T06:20:30.772Z,17.30
2018-07-25T06:23:01.648Z,15.47
2018-07-25T06:25:32.889Z,16.97
2018-07-25T06:28:03.815Z,15.60
2018-07-25T06:30:35.006Z,15.80
2018-07-25T06:33:06.536Z,17.20
2018-07-25T06:35:37.914Z,16.80
2018-07-25T06:38:09.237Z,17.40
2018-07-25T06:40:41.639Z,16.00
2018-07-25T06:43:13.412Z,17.40
2018-07-25T06:45:46.252Z,17.43
2018-07-25T06:48:17.546Z,18.30
2018-07-25T06:50:48.687Z,18.30
2018-07-25T06:53:19.741Z,18.90
2018-07-25T06:55:51.507Z,17.10
2018-07-25T06:58:22.800Z,16.67
2018-07-25T07:00:53.901Z,18.10
2018-07-25T07:03:24.915Z,17.80
2018-07-25T07:05:56.774Z,15.17
2018-07-25T07:08:27.896Z,15.97
2018-07-25T07:10:59.196Z,18.07
2018-07-25T07:13:30.323Z,16.50
2018-07-25T07:16:02.345Z,17.10
2018-07-25T07:18:33.665Z,17.23
2018-07-25T07:21:04.947Z,17.20
2018-07-25T07:23:36.670Z,17.10
2018-07-25T07:26:08.061Z,16.13
2018-07-25T07:28:39.124Z,15.00
2018-07-25T07:31:10.268Z,17.00
2018-07-25T07:33:41.081Z,15.50
2018-07-25T07:36:13.314Z,15.80
2018-07-25T07:38:44.451Z,15.20
2018-07-25T07:41:16.113Z,15.87
2018-07-25T07:43:47.056Z,17.03
2018-07-25T07:46:18.960Z,15.27
2018-07-25T07:48:51.740Z,16.30
2018-07-25T07:51:23.833Z,15.23
2018-07-25T07:53:54.895Z,14.27
2018-07-25T07:56:27.407Z,15.63
2018-07-25T07:58:59.314Z,15.70
2018-07-25T08:01:32.045Z,18.33
2018-07-25T08:04:03.344Z,18.17
2018-07-25T08:06:34.856Z,18.33
2018-07-25T08:09:08.292Z,17.60
2018-07-25T08:11:39.386Z,21.70
2018-07-25T08:14:11.693Z,20.63
2018-07-25T08:16:43.433Z,17.87
2018-07-25T08:19:14.596Z,17.03
2018-07-25T08:21:45.806Z,16.70
2018-07-25T08:24:16.681Z,18.00
2018-07-25T08:26:48.404Z,15.90
2018-07-25T08:29:19.332Z,16.87
2018-07-25T08:31:50.295Z,17.60
2018-07-25T08:34:21.238Z,18.20
2018-07-25T08:36:52.564Z,16.90
2018-07-25T08:39:23.556Z,18.13
2018-07-25T08:41:55.988Z,17.47
2018-07-25T08:44:27.057Z,17.97
2018-07-25T08:46:59.056Z,17.40
2018-07-25T08:49:31.532Z,16.43
2018-07-25T08:52:02.566Z,17.27
2018-07-25T08:54:33.990Z,15.80
2018-07-25T08:57:05.018Z,15.63
2018-07-25T08:59:35.890Z,16.03
2018-07-25T09:02:06.969Z,16.60
2018-07-25T09:04:38.801Z,16.20
2018-07-25T09:07:09.748Z,15.33
2018-07-25T09:09:40.948Z,16.53
2018-07-25T09:12:11.932Z,15.73
2018-07-25T09:14:43.730Z,14.47
2018-07-25T09:17:16.062Z,14.70
2018-07-25T09:19:47.476Z,15.00
2018-07-25T09:22:18.665Z,15.33
2018-07-25T09:24:49.879Z,15.53
2018-07-25T09:27:20.869Z,14.60
2018-07-25T09:29:52.773Z,15.20
2018-07-25T09:32:23.884Z,14.17
2018-07-25T09:34:54.979Z,14.00
2018-07-25T09:37:26.003Z,13.67
2018-07-25T09:39:57.034Z,13.60
2018-07-25T09:42:28.185Z,13.50
2018-07-25T09:44:59.760Z,13.40
2018-07-25T09:47:31.640Z,13.90
2018-07-25T09:50:02.487Z,12.83
2018-07-25T09:52:33.412Z,12.43
2018-07-25T09:55:04.500Z,13.70
2018-07-25T09:57:36.881Z,13.03
2018-07-25T10:00:10.328Z,12.00
2018-07-25T10:02:42.192Z,11.80
2018-07-25T10:05:13.013Z,13.00
2018-07-25T10:07:44.099Z,12.43
2018-07-25T10:10:15.199Z,11.90
2018-07-25T10:12:46.270Z,11.77
2018-07-25T10:15:17.409Z,12.00
2018-07-25T10:17:48.659Z,11.57
2018-07-25T10:20:19.801Z,11.60
2018-07-25T10:22:51.575Z,10.87
2018-07-25T10:25:23.252Z,11.73
2018-07-25T10:27:55.691Z,10.77
2018-07-25T10:30:26.789Z,9.63
2018-07-25T10:32:58.477Z,9.70
2018-07-25T10:35:29.562Z,11.27
2018-07-25T10:38:00.860Z,9.87
2018-07-25T10:40:33.487Z,10.97
2018-07-25T10:43:04.632Z,11.33
2018-07-25T10:45:36.708Z,10.30
2018-07-25T10:48:09.381Z,10.27
2018-07-25T10:50:40.419Z,11.10
2018-07-25T10:53:11.431Z,9.00
2018-07-25T10:55:42.464Z,10.57
2018-07-25T10:58:13.456Z,10.73
2018-07-25T11:00:44.595Z,9.90
2018-07-25T11:03:16.664Z,10.13
2018-07-25T11:05:47.972Z,10.30
2018-07-25T11:08:20.316Z,9.07
2018-07-25T11:10:51.318Z,9.60
2018-07-25T11:13:22.233Z,9.73
2018-07-25T11:15:53.154Z,9.37
2018-07-25T11:18:25.211Z,10.43
2018-07-25T11:20:56.499Z,9.63
2018-07-25T11:23:27.384Z,10.43
2018-07-25T11:25:59.025Z,9.17
2018-07-25T11:28:30.035Z,10.37
2018-07-25T11:31:01.053Z,10.23
2018-07-25T11:33:32.339Z,10.10
2018-07-25T11:36:03.428Z,9.60
2018-07-25T11:38:34.928Z,10.90
2018-07-25T11:41:06.075Z,10.10
2018-07-25T11:43:37.281Z,8.80
2018-07-25T11:46:08.508Z,8.80
2018-07-25T11:48:41.496Z,9.70
2018-07-25T11:51:12.470Z,9.10
2018-07-25T11:53:43.719Z,9.47
2018-07-25T11:56:14.684Z,10.20
2018-07-25T11:58:45.962Z,9.23
2018-07-25T12:01:17.323Z,9.40
2018-07-25T12:03:49.230Z,8.60
2018-07-25T12:06:20.197Z,11.00
2018-07-25T12:08:51.568Z,10.20
2018-07-25T12:11:23.905Z,9.00
2018-07-25T12:13:55.000Z,10.10
2018-07-25T12:16:26.032Z,9.60
2018-07-25T12:18:58.114Z,9.90
2018-07-25T12:21:29.060Z,8.90
2018-07-25T12:24:00.660Z,9.93
2018-07-25T12:26:32.098Z,10.10
2018-07-25T12:29:03.187Z,10.90
2018-07-25T12:31:34.350Z,10.50
2018-07-25T12:34:07.381Z,9.63
2018-07-25T12:36:38.489Z,9.37
2018-07-25T12:39:11.191Z,9.80
2018-07-25T12:41:42.657Z,10.03
2018-07-25T12:44:13.385Z,10.20
2018-07-25T12:46:44.561Z,10.40
2018-07-25T12:49:16.489Z,10.37
2018-07-25T12:51:47.485Z,9.50
2018-07-25T12:54:20.010Z,10.17
2018-07-25T12:56:51.872Z,10.00
2018-07-25T12:59:23.289Z,10.10
2018-07-25T13:01:55.816Z,10.50
2018-07-25T13:04:28.394Z,10.73
2018-07-25T13:06:59.898Z,10.03
2018-07-25T13:09:31.132Z,8.90
2018-07-25T13:12:03.231Z,7.73
2018-07-25T13:14:34.602Z,6.50
2018-07-25T13:17:06.847Z,6.63
2018-07-25T13:19:40.785Z,6.27
2018-07-25T13:22:12.089Z,7.00
2018-07-25T13:24:43.277Z,6.77
2018-07-25T13:27:14.358Z,6.93
2018-07-25T13:29:46.679Z,7.40
2018-07-25T13:32:17.707Z,8.03
2018-07-25T13:34:48.851Z,7.63
2018-07-25T13:37:19.914Z,7.83
2018-07-25T13:39:51.196Z,8.30
2018-07-25T13:42:22.614Z,8.07
2018-07-25T13:44:53.843Z,8.07
2018-07-25T13:47:25.017Z,8.03
2018-07-25T13:49:57.027Z,9.23
2018-07-25T13:52:28.233Z,7.70
2018-07-25T13:54:59.218Z,8.60
2018-07-25T13:57:30.483Z,9.53
2018-07-25T14:00:01.589Z,8.63
2018-07-25T14:02:32.531Z,7.77
2018-07-25T14:05:06.271Z,8.47
2018-07-25T14:07:37.356Z,8.10
2018-07-25T14:10:11.116Z,9.13
2018-07-25T14:12:42.023Z,9.13
2018-07-25T14:15:13.789Z,9.57
2018-07-25T14:17:44.681Z,9.60
2018-07-25T14:20:17.378Z,9.97
2018-07-25T14:22:48.477Z,9.30
2018-07-25T14:25:19.671Z,9.10
2018-07-25T14:27:51.248Z,8.27
2018-07-25T14:30:23.097Z,7.73
2018-07-25T14:32:54.137Z,7.10
2018-07-25T14:35:25.262Z,8.43
2018-07-25T14:37:57.220Z,7.00
2018-07-25T14:40:29.932Z,7.57
2018-07-25T14:43:01.409Z,7.27
2018-07-25T14:45:32.472Z,7.60
2018-07-25T14:48:03.483Z,8.40
2018-07-25T14:50:34.819Z,7.07
2018-07-25T14:53:06.885Z,6.70
2018-07-25T14:55:39.187Z,7.00
2018-07-25T14:58:11.134Z,8.10
2018-07-25T15:00:43.434Z,6.30
2018-07-25T15:03:14.989Z,7.03
2018-07-25T15:05:47.674Z,7.20
2018-07-25T15:08:18.782Z,7.03
2018-07-25T15:10:50.125Z,6.83
2018-07-25T15:13:20.881Z,7.30
2018-07-25T15:15:52.403Z,7.33
2018-07-25T15:18:23.544Z,8.30
2018-07-25T15:20:58.185Z,8.50
2018-07-25T15:23:39.653Z,8.30
2018-07-25T15:26:10.810Z,8.10
2018-07-25T15:28:42.210Z,7.43
2018-07-25T15:31:13.393Z,8.17
2018-07-25T15:33:45.960Z,7.20
2018-07-25T15:36:49.799Z,8.00
2018-07-25T15:39:25.953Z,7.83
2018-07-25T15:41:58.808Z,8.60
2018-07-25T15:44:29.698Z,9.00
2018-07-25T15:47:00.843Z,8.53
2018-07-25T15:49:32.598Z,8.93
2018-07-25T15:52:03.730Z,9.10
2018-07-25T15:54:35.921Z,8.87
2018-07-25T15:57:07.224Z,8.70
2018-07-25T15:59:39.389Z,8.23
2018-07-25T16:02:11.276Z,11.03
2018-07-25T16:04:42.397Z,9.33
2018-07-25T16:07:13.585Z,8.90
2018-07-25T16:09:44.839Z,8.27
2018-07-25T16:12:16.691Z,9.97
2018-07-25T16:14:47.696Z,9.03
2018-07-25T16:17:19.466Z,8.40
2018-07-25T16:19:51.452Z,8.63
2018-07-25T16:22:22.585Z,8.80
2018-07-25T16:24:53.592Z,9.37
2018-07-25T16:27:25.268Z,10.13
2018-07-25T16:29:56.379Z,7.60
2018-07-25T16:32:27.575Z,7.40
2018-07-25T16:34:58.495Z,7.30
2018-07-25T16:37:30.806Z,10.43
2018-07-25T16:40:03.352Z,8.80
2018-07-25T16:42:34.449Z,9.17
2018-07-25T16:45:05.790Z,8.17
2018-07-25T16:47:38.777Z,8.30
2018-07-25T16:50:10.458Z,9.57
2018-07-25T16:52:43.348Z,9.43
2018-07-25T16:55:14.501Z,9.73
2018-07-25T16:57:45.595Z,10.10
2018-07-25T17:00:16.519Z,10.57
2018-07-25T17:02:47.612Z,11.07
2018-07-25T17:05:19.624Z,12.30
2018-07-25T17:07:50.556Z,15.00
2018-07-25T17:10:24.280Z,12.50
2018-07-25T17:12:56.256Z,11.20
2018-07-25T17:15:27.228Z,12.30
2018-07-25T17:17:59.030Z,10.33
2018-07-25T17:20:30.225Z,12.10
2018-07-25T17:23:02.346Z,11.00
2018-07-25T17:25:36.483Z,12.93
2018-07-25T17:28:07.556Z,12.30
2018-07-25T17:30:38.797Z,12.40
2018-07-25T17:33:10.882Z,15.13
2018-07-25T17:35:42.362Z,12.80
2018-07-25T17:38:13.477Z,12.40
2018-07-25T17:40:48.456Z,11.57
2018-07-25T17:43:19.675Z,12.00
2018-07-25T17:45:50.695Z,13.60
2018-07-25T17:48:22.170Z,12.90
2018-07-25T17:50:53.576Z,12.53
2018-07-25T17:53:25.957Z,11.73
2018-07-25T17:55:59.455Z,13.20
2018-07-25T17:58:30.832Z,13.17
2018-07-25T18:01:06.678Z,11.37
2018-07-25T18:03:37.884Z,10.40
2018-07-25T18:06:09.089Z,11.63
2018-07-25T18:08:41.731Z,11.10
2018-07-25T18:11:13.351Z,10.07
2018-07-25T18:13:49.370Z,10.37
2018-07-25T18:16:22.143Z,10.40
2018-07-25T18:18:53.825Z,11.33
2018-07-25T18:21:24.886Z,11.30
2018-07-25T18:23:56.474Z,10.70
2018-07-25T18:26:27.543Z,11.17
2018-07-25T18:28:59.486Z,11.20
2018-07-25T18:31:30.804Z,11.47
2018-07-25T18:34:03.519Z,10.57
2018-07-25T18:36:35.139Z,10.33
2018-07-25T18:39:09.274Z,10.30
2018-07-25T18:41:41.115Z,9.53
2018-07-25T18:44:12.093Z,9.73
2018-07-25T18:46:44.605Z,10.70
2018-07-25T18:49:17.595Z,9.53
2018-07-25T18:51:54.484Z,10.97
2018-07-25T18:54:25.737Z,10.50
2018-07-25T18:56:57.371Z,9.77
2018-07-25T18:59:28.361Z,10.10
2018-07-25T19:02:00.050Z,10.37
2018-07-25T19:04:31.009Z,11.17
2018-07-25T19:07:02.522Z,9.50
2018-07-25T19:09:33.615Z,12.07
2018-07-25T19:12:12.118Z,10.60
2018-07-25T19:14:49.433Z,11.30
2018-07-25T19:17:21.538Z,10.50
2018-07-25T19:19:52.843Z,10.17
2018-07-25T19:22:24.124Z,10.00
2018-07-25T19:24:57.197Z,11.00
2018-07-25T19:27:29.533Z,9.70
2018-07-25T19:30:00.507Z,10.30
2018-07-25T19:32:31.878Z,10.30
2018-07-25T19:35:03.115Z,11.00
2018-07-25T19:37:34.520Z,9.70
2018-07-25T19:40:10.386Z,10.10
2018-07-25T19:42:44.108Z,9.23
2018-07-25T19:45:16.812Z,10.30
2018-07-25T19:47:49.077Z,9.03
2018-07-25T19:52:55.658Z,9.10
2018-07-25T19:55:28.487Z,10.83
2018-07-25T19:57:59.802Z,9.80
2018-07-25T20:00:31.119Z,9.50
2018-07-25T20:03:03.526Z,10.00
2018-07-25T20:05:34.814Z,10.77
2018-07-25T20:08:06.726Z,12.17
2018-07-25T20:10:38.237Z,8.80
2018-07-25T20:13:09.793Z,8.90
2018-07-25T20:15:45.824Z,9.80
2018-07-25T20:18:17.236Z,8.70
2018-07-25T20:20:48.717Z,9.10
2018-07-25T20:23:20.641Z,8.80
2018-07-25T20:25:52.061Z,8.60
2018-07-25T20:28:25.163Z,9.90
2018-07-25T20:30:56.597Z,9.80
2018-07-25T20:33:27.880Z,9.67
2018-07-25T20:35:59.201Z,9.20
2018-07-25T20:38:30.685Z,10.00
2018-07-25T20:41:01.947Z,10.03
2018-07-25T20:43:33.376Z,10.47
2018-07-25T20:46:08.416Z,9.57
2018-07-25T20:48:39.674Z,9.50
2018-07-25T20:51:11.125Z,10.60
2018-07-25T20:53:42.350Z,10.77
2018-07-25T20:56:13.652Z,9.83
2018-07-25T20:58:46.637Z,9.80
2018-07-25T21:01:20.377Z,10.07
2018-07-25T21:03:52.211Z,10.50
2018-07-25T21:06:23.358Z,10.70
2018-07-25T21:08:54.619Z,10.13
2018-07-25T21:11:26.011Z,10.70
2018-07-25T21:13:57.213Z,10.23
2018-07-25T21:16:28.706Z,10.80
2018-07-25T21:19:00.083Z,11.17
2018-07-25T21:21:30.980Z,10.63
2018-07-25T21:24:02.073Z,10.20
2018-07-25T21:26:33.973Z,9.70
2018-07-25T21:29:05.156Z,10.60
2018-07-25T21:31:36.335Z,11.20
2018-07-25T21:34:07.689Z,10.53
2018-07-25T21:36:38.875Z,9.93
2018-07-25T21:39:12.603Z,10.03
2018-07-25T21:41:43.608Z,9.97
2018-07-25T21:44:14.878Z,10.93
2018-07-25T21:46:47.309Z,11.00
2018-07-25T21:49:18.689Z,10.83
2018-07-25T21:51:49.834Z,11.53
2018-07-25T21:54:21.029Z,11.43
2018-07-25T21:56:53.459Z,11.13
2018-07-25T21:59:24.803Z,11.30
2018-07-25T22:01:55.995Z,11.60
2018-07-25T22:04:27.261Z,11.33
2018-07-25T22:06:58.599Z,11.80
2018-07-25T22:09:29.472Z,11.53
2018-07-25T22:12:01.430Z,12.00
2018-07-25T22:14:32.283Z,12.20
2018-07-25T22:17:03.586Z,11.20
2018-07-25T22:19:34.565Z,11.73
2018-07-25T22:22:05.562Z,11.70
2018-07-25T22:24:36.753Z,10.30
2018-07-25T22:27:07.822Z,11.30
2018-07-25T22:29:38.993Z,10.50
2018-07-25T22:32:10.488Z,11.13
2018-07-25T22:34:41.537Z,11.70
2018-07-25T22:37:12.648Z,12.10
2018-07-25T22:39:43.695Z,11.10
2018-07-25T22:42:16.115Z,11.77
2018-07-25T22:44:47.511Z,12.03
2018-07-25T22:47:18.503Z,12.50
2018-07-25T22:49:49.532Z,12.60
2018-07-25T22:52:20.671Z,13.60
2018-07-25T22:54:51.772Z,13.60
2018-07-25T22:57:22.917Z,12.87
2018-07-25T22:59:54.129Z,12.20
2018-07-25T23:02:25.112Z,13.07
2018-07-25T23:04:56.376Z,13.73
2018-07-25T23:07:27.551Z,13.73
2018-07-25T23:09:59.563Z,12.83
2018-07-25T23:12:31.644Z,13.70
2018-07-25T23:15:02.724Z,13.80
2018-07-25T23:17:33.739Z,14.23
2018-07-25T23:20:04.890Z,13.83
2018-07-25T23:22:46.282Z,12.47
2018-07-25T23:25:17.693Z,13.47
2018-07-25T23:27:49.893Z,12.97
2018-07-25T23:30:21.659Z,14.20
2018-07-25T23:32:52.760Z,12.10
2018-07-25T23:35:23.875Z,13.60
2018-07-25T23:37:54.751Z,13.60
2018-07-25T23:40:25.930Z,14.90
2018-07-25T23:42:56.970Z,14.50
2018-07-25T23:45:27.924Z,14.77
2018-07-25T23:47:59.791Z,14.10
2018-07-25T23:50:30.718Z,14.93
2018-07-25T23:53:01.965Z,14.93
2018-07-25T23:55:32.803Z,15.50
2018-07-25T23:58:04.039Z,14.97
